createdAt,value
2023-03-30T00:01:47.639Z,62.38
2023-03-30T00:04:51.483Z,61.81
2023-03-30T00:07:55.493Z,61.84
2023-03-30T00:11:02.581Z,61.36
2023-03-30T00:14:06.291Z,61.52
2023-03-30T00:17:11.520Z,61.93
2023-03-30T00:20:17.366Z,62.46
2023-03-30T00:23:21.092Z,62.35
2023-03-30T00:26:24.483Z,62.64
2023-03-30T00:29:28.016Z,63.42
2023-03-30T00:32:34.413Z,63.51
2023-03-30T00:35:38.770Z,63.54
2023-03-30T00:38:42.571Z,63.69
2023-03-30T00:41:46.698Z,63.94
2023-03-30T00:45:19.363Z,63.99
2023-03-30T00:48:28.794Z,64.08
2023-03-30T00:51:36.832Z,64.13
2023-03-30T00:54:41.463Z,64.44
2023-03-30T00:57:45.458Z,64.58
2023-03-30T01:00:48.847Z,64.68
2023-03-30T01:03:55.094Z,64.50
2023-03-30T01:06:59.704Z,64.78
2023-03-30T01:10:03.695Z,64.72
2023-03-30T01:13:10.054Z,65.15
2023-03-30T01:16:25.503Z,64.67
2023-03-30T01:19:58.790Z,65.50
2023-03-30T01:23:28.680Z,65.66
2023-03-30T01:26:57.923Z,65.55
2023-03-30T01:30:23.875Z,65.68
2023-03-30T01:33:54.856Z,65.65
2023-03-30T01:37:36.987Z,66.06
2023-03-30T01:40:47.730Z,66.78
2023-03-30T01:43:58.998Z,66.66
2023-03-30T01:47:08.798Z,66.43
2023-03-30T01:50:16.695Z,65.96
2023-03-30T01:53:28.066Z,66.29
2023-03-30T01:56:36.775Z,66.31
2023-03-30T01:59:46.845Z,66.65
2023-03-30T02:02:55.807Z,67.04
2023-03-30T02:06:05.194Z,67.18
2023-03-30T02:09:13.792Z,66.96
2023-03-30T02:12:21.063Z,66.57
2023-03-30T02:15:27.274Z,66.61
2023-03-30T02:18:30.892Z,66.73
2023-03-30T02:21:35.417Z,66.81
2023-03-30T02:24:39.605Z,66.77
2023-03-30T02:27:44.416Z,67.12
2023-03-30T02:30:51.064Z,66.85
2023-03-30T02:34:10.628Z,67.48
2023-03-30T02:37:35.135Z,67.34
2023-03-30T02:40:49.093Z,67.58
2023-03-30T02:44:04.367Z,67.75
2023-03-30T02:47:13.576Z,67.59
2023-03-30T02:50:23.447Z,67.87
2023-03-30T02:53:33.693Z,67.26
2023-03-30T02:56:46.017Z,67.48
2023-03-30T02:59:56.217Z,67.22
2023-03-30T03:03:08.632Z,67.21
2023-03-30T03:06:15.012Z,67.46
2023-03-30T03:09:26.370Z,67.57
2023-03-30T03:12:29.979Z,67.90
2023-03-30T03:15:35.637Z,67.29
2023-03-30T03:18:44.808Z,67.27
2023-03-30T03:21:49.294Z,67.00
2023-03-30T03:24:53.131Z,67.86
2023-03-30T03:28:05.746Z,67.33
2023-03-30T03:31:19.021Z,67.87
2023-03-30T03:34:26.215Z,67.51
2023-03-30T03:37:39.148Z,67.13
2023-03-30T03:40:42.557Z,67.91
2023-03-30T03:43:46.074Z,66.94
2023-03-30T03:46:52.932Z,67.31
2023-03-30T03:49:56.489Z,67.87
2023-03-30T03:53:00.013Z,67.98
2023-03-30T03:56:03.706Z,67.49
2023-03-30T03:59:07.785Z,67.42
2023-03-30T04:02:12.570Z,68.15
2023-03-30T04:05:16.544Z,68.36
2023-03-30T04:08:20.091Z,67.92
2023-03-30T04:11:24.217Z,68.85
2023-03-30T04:14:46.383Z,68.39
2023-03-30T04:18:10.173Z,68.46
2023-03-30T04:21:36.776Z,68.99
2023-03-30T04:24:59.284Z,68.94
2023-03-30T04:28:29.877Z,68.57
2023-03-30T04:31:47.226Z,69.46
2023-03-30T04:35:24.350Z,68.90
2023-03-30T04:38:58.189Z,68.84
2023-03-30T04:42:30.417Z,68.92
2023-03-30T04:45:57.626Z,68.93
2023-03-30T04:49:30.401Z,69.50
2023-03-30T04:52:55.411Z,69.29
2023-03-30T04:56:19.438Z,69.15
2023-03-30T04:59:44.822Z,69.60
2023-03-30T05:03:06.985Z,69.42
2023-03-30T05:06:24.256Z,69.05
2023-03-30T05:09:59.942Z,69.16
2023-03-30T05:13:23.926Z,69.28
2023-03-30T05:16:40.592Z,68.73
2023-03-30T05:20:02.372Z,68.87
2023-03-30T05:23:18.382Z,68.77
2023-03-30T05:26:56.421Z,69.07
2023-03-30T05:30:20.727Z,69.09
2023-03-30T05:33:43.905Z,69.72
2023-03-30T05:37:19.526Z,69.63
2023-03-30T05:40:55.664Z,69.88
2023-03-30T05:44:08.766Z,70.55
2023-03-30T05:47:35.709Z,70.70
2023-03-30T05:51:05.955Z,70.35
2023-03-30T05:54:28.291Z,70.86
2023-03-30T05:57:45.786Z,71.35
2023-03-30T06:01:01.501Z,72.51
2023-03-30T06:04:11.550Z,73.21
2023-03-30T06:07:15.227Z,74.75
2023-03-30T06:10:18.901Z,74.98
2023-03-30T06:13:24.532Z,75.20
2023-03-30T06:16:31.986Z,74.98
2023-03-30T06:19:36.578Z,75.16
2023-03-30T06:22:41.692Z,75.29
2023-03-30T06:25:56.128Z,75.25
2023-03-30T06:29:05.547Z,75.39
2023-03-30T06:32:10.819Z,75.21
2023-03-30T06:35:17.424Z,74.77
2023-03-30T06:38:22.460Z,75.24
2023-03-30T06:41:28.388Z,75.50
2023-03-30T06:44:32.515Z,73.91
2023-03-30T06:47:41.428Z,73.41
2023-03-30T06:50:47.368Z,73.52
2023-03-30T06:53:59.614Z,73.04
2023-03-30T06:57:04.207Z,72.66
2023-03-30T07:00:13.759Z,72.88
2023-03-30T07:03:19.495Z,72.22
2023-03-30T07:06:33.108Z,71.85
2023-03-30T07:09:36.678Z,71.44
2023-03-30T07:12:40.951Z,70.46
2023-03-30T07:15:45.010Z,70.12
2023-03-30T07:18:49.838Z,69.43
2023-03-30T07:21:53.445Z,68.65
2023-03-30T07:25:00.847Z,68.18
2023-03-30T07:28:07.424Z,67.74
2023-03-30T07:31:14.101Z,66.04
2023-03-30T07:34:20.785Z,66.15
2023-03-30T07:37:29.951Z,65.93
2023-03-30T07:40:33.516Z,66.06
2023-03-30T07:43:37.432Z,66.31
2023-03-30T07:46:41.309Z,65.10
2023-03-30T07:49:51.612Z,64.74
2023-03-30T07:52:55.144Z,64.77
2023-03-30T07:55:58.956Z,64.21
2023-03-30T07:59:12.845Z,64.29
2023-03-30T08:02:19.327Z,63.29
2023-03-30T08:05:28.423Z,62.83
2023-03-30T08:08:42.061Z,62.97
2023-03-30T08:11:46.254Z,62.40
2023-03-30T08:14:49.638Z,62.00
2023-03-30T08:17:53.126Z,62.30
2023-03-30T08:20:57.916Z,61.73
2023-03-30T08:24:01.424Z,61.35
2023-03-30T08:27:04.985Z,60.65
2023-03-30T08:30:09.559Z,61.41
2023-03-30T08:33:13.645Z,60.93
2023-03-30T08:36:20.330Z,60.30
2023-03-30T08:39:23.822Z,59.59
2023-03-30T08:42:47.813Z,59.41
2023-03-30T08:45:52.817Z,59.43
2023-03-30T08:49:00.369Z,58.96
2023-03-30T08:52:06.750Z,59.42
2023-03-30T08:55:21.496Z,59.41
2023-03-30T08:58:32.952Z,59.13
2023-03-30T09:01:45.480Z,58.62
2023-03-30T09:05:02.139Z,58.36
2023-03-30T09:08:16.026Z,58.04
2023-03-30T09:11:32.702Z,57.41
2023-03-30T09:14:41.636Z,56.75
2023-03-30T09:17:49.574Z,55.96
2023-03-30T09:20:55.637Z,55.94
2023-03-30T09:24:07.514Z,55.20
2023-03-30T09:27:20.518Z,55.23
2023-03-30T09:30:34.693Z,55.91
2023-03-30T09:33:45.972Z,55.86
2023-03-30T09:36:57.453Z,55.77
2023-03-30T09:40:12.318Z,54.90
2023-03-30T09:43:26.185Z,54.76
2023-03-30T09:46:29.769Z,55.09
2023-03-30T09:49:40.192Z,54.78
2023-03-30T09:52:57.670Z,55.09
2023-03-30T09:56:10.337Z,55.49
2023-03-30T09:59:30.599Z,55.30
2023-03-30T10:02:34.400Z,55.07
2023-03-30T10:05:39.652Z,55.31
2023-03-30T10:08:45.480Z,56.13
2023-03-30T10:11:53.059Z,54.90
2023-03-30T10:14:57.999Z,54.58
2023-03-30T10:18:05.276Z,53.69
2023-03-30T10:21:18.052Z,53.96
2023-03-30T10:24:24.108Z,53.83
2023-03-30T10:27:35.142Z,54.01
2023-03-30T10:30:39.486Z,54.00
2023-03-30T10:33:45.698Z,54.77
2023-03-30T10:36:54.442Z,52.97
2023-03-30T10:40:01.004Z,52.82
2023-03-30T10:43:09.812Z,51.46
2023-03-30T10:46:19.459Z,52.30
2023-03-30T10:49:33.254Z,52.49
2023-03-30T10:52:58.364Z,52.41
2023-03-30T10:56:13.774Z,52.19
2023-03-30T10:59:39.380Z,52.21
2023-03-30T11:03:00.779Z,52.30
2023-03-30T11:06:11.420Z,52.67
2023-03-30T11:09:21.039Z,52.63
2023-03-30T11:12:27.700Z,52.72
2023-03-30T11:15:40.846Z,52.60
2023-03-30T11:18:53.592Z,53.06
2023-03-30T11:22:03.878Z,52.13
2023-03-30T11:25:20.928Z,52.87
2023-03-30T11:28:43.806Z,51.00
2023-03-30T11:31:57.878Z,50.80
2023-03-30T11:35:12.212Z,49.84
2023-03-30T11:38:20.086Z,50.26
2023-03-30T11:41:29.977Z,50.89
2023-03-30T11:44:34.119Z,51.38
2023-03-30T11:48:02.844Z,52.13
2023-03-30T11:51:21.560Z,52.35
2023-03-30T11:55:02.412Z,52.65
2023-03-30T11:58:16.833Z,53.30
2023-03-30T12:01:32.033Z,53.42
2023-03-30T12:04:45.542Z,54.01
2023-03-30T12:08:02.342Z,53.50
2023-03-30T12:11:14.264Z,53.35
2023-03-30T12:14:36.014Z,54.66
2023-03-30T12:17:47.223Z,54.28
2023-03-30T12:20:58.631Z,55.02
2023-03-30T12:24:14.459Z,55.55
2023-03-30T12:27:18.050Z,55.64
2023-03-30T12:30:27.312Z,55.91
2023-03-30T12:33:37.088Z,55.79
2023-03-30T12:36:43.337Z,55.66
2023-03-30T12:39:50.148Z,56.11
2023-03-30T12:43:05.865Z,56.98
2023-03-30T12:46:20.381Z,56.84
2023-03-30T12:49:36.928Z,56.76
2023-03-30T12:52:51.312Z,55.50
2023-03-30T12:56:04.944Z,56.68
2023-03-30T12:59:28.272Z,56.16
2023-03-30T13:02:55.648Z,55.98
2023-03-30T13:06:02.255Z,56.48
2023-03-30T13:09:33.262Z,56.20
2023-03-30T13:12:40.336Z,55.96
2023-03-30T13:15:49.518Z,56.55
2023-03-30T13:18:56.940Z,56.65
2023-03-30T13:22:25.899Z,56.66
2023-03-30T13:25:44.480Z,57.54
2023-03-30T13:29:00.644Z,58.64
2023-03-30T13:32:14.170Z,60.05
2023-03-30T13:35:43.230Z,61.01
2023-03-30T13:39:07.754Z,61.43
2023-03-30T13:42:47.111Z,62.18
2023-03-30T13:46:13.190Z,62.52
2023-03-30T13:49:48.157Z,62.63
2023-03-30T13:52:53.897Z,63.12
2023-03-30T13:55:57.773Z,63.32
2023-03-30T13:59:07.404Z,63.75
2023-03-30T14:02:16.963Z,63.71
2023-03-30T14:05:24.267Z,64.18
2023-03-30T14:08:27.650Z,64.47
2023-03-30T14:11:35.773Z,64.26
2023-03-30T14:14:47.504Z,64.99
2023-03-30T14:17:53.022Z,64.56
2023-03-30T14:20:59.238Z,65.19
2023-03-30T14:24:05.399Z,65.11
2023-03-30T14:27:14.686Z,65.24
2023-03-30T14:30:22.465Z,65.34
2023-03-30T14:33:26.788Z,65.52
2023-03-30T14:36:30.813Z,66.31
2023-03-30T14:39:41.331Z,65.90
2023-03-30T14:42:44.864Z,66.39
2023-03-30T14:45:51.175Z,66.64
2023-03-30T14:48:55.073Z,67.23
2023-03-30T14:52:02.502Z,67.16
2023-03-30T14:55:11.048Z,67.29
2023-03-30T14:58:18.445Z,67.91
2023-03-30T15:01:31.638Z,67.72
2023-03-30T15:04:38.591Z,68.11
2023-03-30T15:07:42.541Z,68.31
2023-03-30T15:10:51.898Z,68.51
2023-03-30T15:14:02.465Z,68.67
2023-03-30T15:20:32.508Z,69.06
2023-03-30T15:23:40.905Z,68.71
2023-03-30T15:26:54.720Z,68.57
2023-03-30T15:33:33.015Z,68.60
2023-03-30T15:36:39.387Z,68.71
2023-03-30T15:39:50.274Z,68.75
2023-03-30T15:43:12.949Z,69.19
2023-03-30T15:46:17.660Z,69.86
2023-03-30T15:49:29.598Z,70.09
2023-03-30T15:52:35.666Z,70.58
2023-03-30T15:55:40.755Z,70.61
2023-03-30T15:58:44.436Z,70.73
2023-03-30T16:01:52.927Z,70.97
2023-03-30T16:04:58.310Z,71.47
2023-03-30T16:08:01.893Z,71.44
2023-03-30T16:11:05.831Z,71.21
2023-03-30T16:14:14.537Z,71.49
2023-03-30T16:17:18.227Z,71.93
2023-03-30T16:20:24.632Z,71.69
2023-03-30T16:23:27.981Z,71.89
2023-03-30T16:26:31.385Z,72.21
2023-03-30T16:29:35.096Z,72.68
2023-03-30T16:32:38.585Z,73.19
2023-03-30T16:35:43.732Z,73.79
2023-03-30T16:38:48.080Z,74.17
2023-03-30T16:41:52.598Z,74.43
2023-03-30T16:44:56.498Z,74.06
2023-03-30T16:48:02.401Z,74.45
2023-03-30T16:51:08.103Z,74.91
2023-03-30T16:54:27.209Z,74.88
2023-03-30T16:57:33.492Z,75.52
2023-03-30T17:00:41.556Z,75.74
2023-03-30T17:03:45.944Z,75.90
2023-03-30T17:06:50.735Z,75.95
2023-03-30T17:09:54.137Z,75.53
2023-03-30T17:12:58.299Z,76.25
2023-03-30T17:16:03.078Z,76.13
2023-03-30T17:19:06.914Z,76.56
2023-03-30T17:22:11.719Z,76.88
2023-03-30T17:25:15.661Z,77.24
2023-03-30T17:28:23.082Z,77.30
2023-03-30T17:31:26.643Z,77.38
2023-03-30T17:34:30.053Z,77.41
2023-03-30T17:37:35.288Z,77.84
2023-03-30T17:40:39.285Z,78.13
2023-03-30T17:43:43.727Z,78.52
2023-03-30T17:46:47.625Z,78.49
2023-03-30T17:49:51.154Z,78.54
2023-03-30T17:52:57.194Z,79.39
2023-03-30T17:56:03.114Z,79.85
2023-03-30T17:59:11.435Z,80.63
2023-03-30T18:02:14.970Z,81.07
2023-03-30T18:05:19.627Z,81.86
2023-03-30T18:08:25.182Z,82.42
2023-03-30T18:11:28.713Z,82.82
2023-03-30T18:14:31.978Z,82.74
2023-03-30T18:17:35.575Z,82.71
2023-03-30T18:20:41.577Z,82.78
2023-03-30T18:23:46.588Z,83.14
2023-03-30T18:26:49.908Z,83.48
2023-03-30T18:29:53.349Z,83.70
2023-03-30T18:32:57.602Z,83.69
2023-03-30T18:36:05.404Z,83.89
2023-03-30T18:39:20.263Z,84.31
2023-03-30T18:42:23.970Z,83.58
2023-03-30T18:45:31.362Z,83.91
2023-03-30T18:48:34.811Z,83.40
2023-03-30T18:51:40.664Z,84.11
2023-03-30T18:54:45.787Z,83.58
2023-03-30T18:57:50.032Z,83.50
2023-03-30T19:00:54.803Z,83.52
2023-03-30T19:03:58.273Z,83.78
2023-03-30T19:07:01.661Z,83.15
2023-03-30T19:10:07.998Z,83.74
2023-03-30T19:13:14.664Z,83.55
2023-03-30T19:16:18.774Z,84.00
2023-03-30T19:19:22.749Z,84.25
2023-03-30T19:22:26.207Z,83.61
2023-03-30T19:25:31.280Z,83.85
2023-03-30T19:28:35.058Z,83.80
2023-03-30T19:31:38.608Z,84.25
2023-03-30T19:34:42.225Z,84.13
2023-03-30T19:37:47.094Z,83.80
2023-03-30T19:40:52.013Z,83.38
2023-03-30T19:43:55.456Z,83.27
2023-03-30T19:46:58.874Z,83.16
2023-03-30T19:50:03.093Z,83.24
2023-03-30T19:53:07.590Z,82.75
2023-03-30T19:56:12.846Z,83.52
2023-03-30T19:59:18.040Z,83.31
2023-03-30T20:02:22.864Z,83.38
2023-03-30T20:05:26.796Z,83.32
2023-03-30T20:08:30.260Z,83.05
2023-03-30T20:11:35.410Z,83.18
2023-03-30T20:14:39.836Z,83.68
2023-03-30T20:17:43.719Z,83.61
2023-03-30T20:20:47.192Z,83.41
2023-03-30T20:23:50.916Z,83.46
2023-03-30T20:26:55.729Z,84.33
2023-03-30T20:29:59.155Z,84.12
2023-03-30T20:33:08.028Z,84.04
2023-03-30T20:36:12.797Z,83.70
2023-03-30T20:39:16.255Z,83.23
2023-03-30T20:42:26.445Z,83.40
2023-03-30T20:45:30.837Z,83.17
2023-03-30T20:48:41.628Z,83.62
2023-03-30T20:51:46.580Z,83.21
2023-03-30T20:54:50.284Z,83.19
2023-03-30T20:57:55.102Z,82.05
2023-03-30T21:00:59.373Z,82.70
2023-03-30T21:04:04.260Z,82.72
2023-03-30T21:07:10.329Z,83.41
2023-03-30T21:10:16.023Z,84.15
2023-03-30T21:13:21.497Z,84.33
2023-03-30T21:16:26.714Z,84.37
2023-03-30T21:19:30.204Z,84.26
2023-03-30T21:22:33.984Z,84.37
2023-03-30T21:25:37.301Z,84.75
2023-03-30T21:28:42.691Z,84.78
2023-03-30T21:31:46.287Z,83.86
2023-03-30T21:34:49.900Z,84.15
2023-03-30T21:37:53.900Z,84.12
2023-03-30T21:40:59.196Z,84.02
2023-03-30T21:44:05.668Z,84.30
2023-03-30T21:47:09.122Z,83.98
2023-03-30T21:50:12.738Z,84.47
2023-03-30T21:53:16.716Z,84.35
2023-03-30T21:56:22.461Z,84.76
2023-03-30T21:59:27.985Z,85.16
2023-03-30T22:02:31.600Z,85.20
2023-03-30T22:05:38.231Z,84.86
2023-03-30T22:08:41.712Z,85.22
2023-03-30T22:11:45.422Z,84.96
2023-03-30T22:14:50.230Z,85.24
2023-03-30T22:17:53.748Z,85.72
2023-03-30T22:21:00.524Z,85.68
2023-03-30T22:24:05.268Z,86.37
2023-03-30T22:27:09.068Z,86.02
2023-03-30T22:30:15.303Z,86.03
2023-03-30T22:33:19.298Z,86.01
2023-03-30T22:36:24.616Z,85.56
2023-03-30T22:39:28.244Z,85.00
2023-03-30T22:42:31.733Z,85.05
2023-03-30T22:45:36.645Z,84.76
2023-03-30T22:48:41.763Z,84.94
2023-03-30T22:51:52.586Z,85.50
2023-03-30T22:54:56.976Z,85.30
2023-03-30T22:58:01.550Z,84.98
2023-03-30T23:01:10.488Z,85.32
2023-03-30T23:04:14.231Z,85.49
2023-03-30T23:07:17.885Z,85.20
2023-03-30T23:10:25.578Z,85.94
2023-03-30T23:13:29.065Z,85.10
2023-03-30T23:16:36.187Z,84.61
2023-03-30T23:19:40.314Z,84.23
2023-03-30T23:22:44.220Z,84.41
2023-03-30T23:25:50.972Z,83.57
2023-03-30T23:28:54.763Z,83.93
2023-03-30T23:31:59.521Z,83.51
2023-03-30T23:35:03.052Z,82.44
2023-03-30T23:38:06.437Z,82.79
2023-03-30T23:41:12.027Z,82.47
2023-03-30T23:44:15.619Z,81.76
2023-03-30T23:47:20.667Z,81.93
2023-03-30T23:50:24.169Z,82.25
2023-03-30T23:53:27.676Z,81.73
2023-03-30T23:56:32.341Z,81.90
2023-03-30T23:59:38.436Z,81.80
